createdAt,value
2023-12-08T00:01:20.150Z,17.10
2023-12-08T00:03:47.174Z,18.83
2023-12-08T00:06:17.215Z,18.08
2023-12-08T00:08:44.295Z,18.92
2023-12-08T00:11:12.691Z,18.85
2023-12-08T00:13:39.746Z,18.13
2023-12-08T00:16:07.231Z,18.65
2023-12-08T00:18:35.500Z,18.70
2023-12-08T00:21:03.258Z,18.67
2023-12-08T00:23:32.961Z,17.45
2023-12-08T00:26:00.411Z,18.23
2023-12-08T00:28:29.146Z,17.00
2023-12-08T00:30:56.031Z,17.70
2023-12-08T00:33:24.274Z,17.70
2023-12-08T00:35:51.406Z,17.60
2023-12-08T00:38:19.067Z,17.35
2023-12-08T00:40:46.025Z,16.92
2023-12-08T00:43:14.329Z,17.35
2023-12-08T00:45:42.792Z,19.15
2023-12-08T00:48:10.172Z,16.08
2023-12-08T00:50:37.279Z,18.90
2023-12-08T00:53:04.508Z,17.85
2023-12-08T00:55:31.656Z,16.42
2023-12-08T00:57:58.589Z,16.92
2023-12-08T01:00:26.110Z,17.83
2023-12-08T01:02:53.657Z,16.08
2023-12-08T01:05:21.788Z,21.13
2023-12-08T01:07:49.139Z,17.70
2023-12-08T01:10:16.533Z,18.20
2023-12-08T01:12:44.777Z,16.42
2023-12-08T01:15:11.994Z,16.52
2023-12-08T01:17:39.615Z,16.40
2023-12-08T01:20:08.779Z,16.65
2023-12-08T01:22:36.015Z,17.88
2023-12-08T01:25:03.494Z,15.90
2023-12-08T01:27:30.725Z,16.60
2023-12-08T01:30:01.816Z,16.35
2023-12-08T01:32:28.940Z,16.55
2023-12-08T01:34:57.172Z,16.02
2023-12-08T01:37:24.540Z,15.80
2023-12-08T01:39:53.165Z,16.65
2023-12-08T01:42:20.146Z,17.05
2023-12-08T01:44:47.739Z,15.13
2023-12-08T01:47:15.811Z,15.18
2023-12-08T01:49:43.779Z,15.10
2023-12-08T01:52:14.023Z,16.55
2023-12-08T01:54:41.040Z,14.77
2023-12-08T01:57:10.105Z,15.52
2023-12-08T01:59:37.513Z,14.40
2023-12-08T02:02:05.346Z,13.75
2023-12-08T02:04:33.717Z,12.75
2023-12-08T02:07:04.583Z,14.50
2023-12-08T02:09:32.084Z,15.52
2023-12-08T02:12:00.341Z,14.60
2023-12-08T02:14:27.907Z,16.15
2023-12-08T02:17:03.495Z,15.23
2023-12-08T02:21:58.945Z,15.27
2023-12-08T02:24:29.081Z,13.60
2023-12-08T02:26:56.177Z,14.70
2023-12-08T02:29:23.497Z,15.50
2023-12-08T02:32:04.007Z,13.85
2023-12-08T02:34:33.088Z,14.00
2023-12-08T02:37:03.741Z,13.23
2023-12-08T02:39:32.827Z,13.73
2023-12-08T02:42:02.026Z,13.07
2023-12-08T02:44:29.173Z,14.80
2023-12-08T02:46:58.212Z,15.48
2023-12-08T02:49:25.305Z,15.05
2023-12-08T02:51:52.419Z,14.73
2023-12-08T02:54:19.544Z,13.40
2023-12-08T02:56:46.542Z,14.10
2023-12-08T02:59:13.653Z,13.40
2023-12-08T03:01:40.620Z,13.27
2023-12-08T03:04:08.304Z,14.10
2023-12-08T03:06:35.282Z,14.10
2023-12-08T03:09:02.572Z,13.95
2023-12-08T03:11:29.494Z,13.93
2023-12-08T03:13:57.484Z,13.25
2023-12-08T03:16:25.722Z,13.75
2023-12-08T03:18:53.016Z,13.10
2023-12-08T03:21:27.030Z,12.95
2023-12-08T03:23:55.491Z,13.90
2023-12-08T03:26:25.493Z,12.40
2023-12-08T03:28:52.797Z,13.23
2023-12-08T03:31:27.640Z,13.13
2023-12-08T03:33:55.496Z,13.45
2023-12-08T03:36:25.830Z,13.30
2023-12-08T03:38:54.044Z,12.88
2023-12-08T03:41:21.104Z,12.25
2023-12-08T03:43:49.722Z,12.88
2023-12-08T03:46:16.846Z,13.05
2023-12-08T03:48:45.954Z,13.57
2023-12-08T03:51:13.385Z,13.27
2023-12-08T03:53:41.596Z,13.10
2023-12-08T03:56:31.988Z,12.60
2023-12-08T03:59:10.119Z,13.13
2023-12-08T04:01:38.616Z,12.27
2023-12-08T04:04:08.357Z,14.15
2023-12-08T04:07:00.111Z,13.88
2023-12-08T04:09:37.463Z,13.45
2023-12-08T04:12:10.956Z,11.50
2023-12-08T04:14:40.261Z,12.82
2023-12-08T04:17:10.563Z,11.75
2023-12-08T04:23:43.090Z,10.82
2023-12-08T04:26:11.031Z,11.88
2023-12-08T04:28:38.118Z,11.60
2023-12-08T04:31:06.968Z,12.75
2023-12-08T04:33:34.204Z,11.73
2023-12-08T04:36:02.382Z,12.95
2023-12-08T04:38:31.436Z,14.15
2023-12-08T04:41:00.439Z,12.00
2023-12-08T04:43:43.312Z,10.90
2023-12-08T04:46:17.008Z,11.35
2023-12-08T04:48:50.288Z,11.80
2023-12-08T04:51:23.045Z,12.15
2023-12-08T04:53:50.498Z,11.77
2023-12-08T04:56:55.121Z,12.55
2023-12-08T05:18:27.266Z,12.00
2023-12-08T05:20:54.783Z,11.80
2023-12-08T05:23:22.111Z,11.80
2023-12-08T05:25:51.221Z,13.50
2023-12-08T05:28:19.960Z,12.10
2023-12-08T05:30:47.121Z,12.25
2023-12-08T05:33:14.359Z,12.73
2023-12-08T05:36:03.713Z,11.93
2023-12-08T05:38:32.453Z,13.80
2023-12-08T05:44:05.063Z,12.93
2023-12-08T05:57:59.211Z,11.30
2023-12-08T06:00:32.176Z,11.50
2023-12-08T06:03:00.881Z,11.82
2023-12-08T06:09:18.046Z,10.95
2023-12-08T06:11:51.946Z,10.45
2023-12-08T06:14:21.773Z,11.88
2023-12-08T06:16:51.576Z,14.60
2023-12-08T06:19:19.140Z,11.38
2023-12-08T06:21:46.910Z,11.35
2023-12-08T06:24:14.931Z,11.02
2023-12-08T06:26:42.069Z,14.23
2023-12-08T06:29:11.143Z,14.20
2023-12-08T06:31:38.380Z,11.23
2023-12-08T06:37:18.392Z,10.73
2023-12-08T06:39:45.691Z,10.93
2023-12-08T06:42:14.835Z,11.15
2023-12-08T06:44:42.337Z,11.73
2023-12-08T06:47:12.708Z,10.93
2023-12-08T06:49:45.108Z,10.57
2023-12-08T06:52:12.512Z,11.98
2023-12-08T06:54:39.995Z,12.18
2023-12-08T06:57:07.265Z,11.10
2023-12-08T06:59:34.836Z,11.40
2023-12-08T07:02:24.206Z,10.88
2023-12-08T07:05:09.826Z,16.05
2023-12-08T07:07:45.415Z,12.65
2023-12-08T07:10:12.961Z,12.80
2023-12-08T07:12:39.981Z,12.25
2023-12-08T07:15:08.366Z,12.10
2023-12-08T07:17:37.335Z,12.60
2023-12-08T07:20:07.647Z,12.02
2023-12-08T07:22:35.414Z,11.75
2023-12-08T07:25:08.629Z,11.75
2023-12-08T07:27:35.590Z,11.05
2023-12-08T07:30:04.783Z,11.43
2023-12-08T07:32:32.424Z,12.60
2023-12-08T07:38:27.181Z,12.45
2023-12-08T07:40:55.120Z,12.27
2023-12-08T07:43:26.727Z,10.35
2023-12-08T07:52:12.809Z,12.43
2023-12-08T07:54:49.375Z,12.50
2023-12-08T07:57:19.514Z,12.93
2023-12-08T08:00:11.165Z,11.80
2023-12-08T08:02:40.119Z,11.77
2023-12-08T08:05:07.457Z,13.40
2023-12-08T08:07:35.059Z,13.13
2023-12-08T08:10:03.668Z,12.80
2023-12-08T08:12:33.361Z,12.63
2023-12-08T08:15:05.768Z,12.23
2023-12-08T08:17:38.250Z,12.57
2023-12-08T08:20:07.661Z,11.98
2023-12-08T08:23:06.106Z,12.30
2023-12-08T08:26:10.538Z,11.30
2023-12-08T08:29:06.626Z,11.63
2023-12-08T08:31:59.057Z,13.18
2023-12-08T08:34:26.725Z,11.73
2023-12-08T08:36:53.949Z,12.00
2023-12-08T08:39:21.807Z,11.77
2023-12-08T08:41:49.794Z,12.70
2023-12-08T08:44:18.544Z,11.93
2023-12-08T08:46:45.622Z,11.57
2023-12-08T08:49:13.826Z,11.45
2023-12-08T08:51:45.762Z,11.30
2023-12-08T08:54:15.158Z,14.57
2023-12-08T08:56:58.436Z,11.53
2023-12-08T08:59:25.942Z,12.27
2023-12-08T09:01:57.104Z,12.80
2023-12-08T09:04:25.124Z,13.35
2023-12-08T09:06:52.863Z,12.63
2023-12-08T09:09:20.763Z,13.90
2023-12-08T09:11:52.623Z,14.68
2023-12-08T09:14:30.418Z,14.02
2023-12-08T09:16:58.673Z,14.23
2023-12-08T09:19:27.802Z,15.07
2023-12-08T09:21:58.458Z,13.40
2023-12-08T09:24:32.427Z,13.07
2023-12-08T09:27:05.753Z,14.05
2023-12-08T09:29:55.876Z,12.48
2023-12-08T09:32:35.136Z,13.18
2023-12-08T09:35:04.251Z,14.18
2023-12-08T09:38:05.478Z,13.57
2023-12-08T09:40:39.485Z,12.95
2023-12-08T09:43:20.502Z,12.15
2023-12-08T09:50:05.041Z,14.55
2023-12-08T09:52:38.502Z,14.38
2023-12-08T09:55:08.066Z,20.15
2023-12-08T09:57:39.603Z,15.70
2023-12-08T10:00:35.257Z,14.25
2023-12-08T10:03:04.618Z,14.13
2023-12-08T10:05:45.229Z,14.40
2023-12-08T10:08:15.404Z,15.18
2023-12-08T10:14:07.735Z,16.73
2023-12-08T10:16:40.280Z,14.05
2023-12-08T10:19:15.875Z,17.85
2023-12-08T10:21:45.235Z,13.90
2023-12-08T10:24:17.830Z,15.48
2023-12-08T10:27:08.505Z,15.52
2023-12-08T10:29:42.115Z,14.52
2023-12-08T10:32:17.083Z,16.25
2023-12-08T10:35:01.528Z,15.85
2023-12-08T10:37:58.832Z,14.52
2023-12-08T10:40:43.727Z,15.50
2023-12-08T10:43:11.563Z,15.70
2023-12-08T10:45:45.598Z,13.75
2023-12-08T10:48:15.527Z,15.95
2023-12-08T10:50:44.878Z,15.80
2023-12-08T10:53:19.588Z,16.58
2023-12-08T10:55:53.702Z,19.92
2023-12-08T10:58:23.345Z,15.60
2023-12-08T11:00:57.536Z,15.77
2023-12-08T11:03:36.392Z,14.67
2023-12-08T11:06:10.713Z,15.05
2023-12-08T11:08:46.741Z,14.45
2023-12-08T11:11:14.205Z,16.20
2023-12-08T11:13:55.722Z,16.70
2023-12-08T11:16:36.596Z,15.10
2023-12-08T11:19:05.900Z,17.48
2023-12-08T11:21:34.153Z,16.27
2023-12-08T11:24:01.417Z,18.60
2023-12-08T11:27:24.031Z,16.48
2023-12-08T11:30:22.135Z,16.98
2023-12-08T11:33:15.532Z,19.40
2023-12-08T11:36:07.718Z,16.95
2023-12-08T11:38:35.586Z,17.00
2023-12-08T11:41:05.416Z,16.73
2023-12-08T11:43:36.807Z,18.05
2023-12-08T11:46:04.236Z,19.00
2023-12-08T11:48:38.060Z,17.95
2023-12-08T11:51:24.274Z,19.88
2023-12-08T11:56:47.212Z,19.88
2023-12-08T11:59:26.123Z,17.48
2023-12-08T12:01:55.754Z,18.95
2023-12-08T12:04:29.264Z,16.90
2023-12-08T12:07:02.006Z,16.08
2023-12-08T12:09:35.588Z,16.42
2023-12-08T12:12:24.746Z,16.63
2023-12-08T12:15:00.485Z,13.90
2023-12-08T12:17:35.877Z,15.70
2023-12-08T12:20:06.332Z,14.48
2023-12-08T12:22:33.534Z,12.98
2023-12-08T12:25:01.604Z,13.20
2023-12-08T12:27:33.924Z,15.73
2023-12-08T12:30:26.351Z,19.15
2023-12-08T12:33:00.375Z,13.03
2023-12-08T12:39:25.346Z,13.63
2023-12-08T12:42:01.795Z,11.85
2023-12-08T12:44:43.877Z,13.30
2023-12-08T12:48:05.505Z,11.70
2023-12-08T13:00:56.692Z,11.25
2023-12-08T13:07:07.800Z,10.80
2023-12-08T13:11:04.781Z,18.70
2023-12-08T13:35:34.808Z,16.55
2023-12-08T13:38:12.239Z,13.85
2023-12-08T13:40:41.707Z,12.75
2023-12-08T13:43:29.315Z,13.55
2023-12-08T13:46:02.490Z,14.40
2023-12-08T13:49:06.640Z,13.80
2023-12-08T14:04:09.598Z,16.95
2023-12-08T14:47:37.859Z,19.35
2023-12-08T14:54:06.145Z,16.75
2023-12-08T15:04:45.518Z,16.70
2023-12-08T15:07:39.790Z,17.17
2023-12-08T15:10:14.207Z,18.30
2023-12-08T15:12:42.714Z,17.33
2023-12-08T15:15:14.741Z,18.13
2023-12-08T15:17:45.411Z,17.90
2023-12-08T15:20:18.787Z,18.15
2023-12-08T15:23:35.193Z,18.38
2023-12-08T15:26:10.455Z,18.73
2023-12-08T15:29:15.910Z,17.05
2023-12-08T15:34:33.752Z,18.30
2023-12-08T15:37:02.793Z,17.60
2023-12-08T15:39:39.466Z,16.90
2023-12-08T15:42:17.809Z,17.55
2023-12-08T15:44:58.153Z,18.20
2023-12-08T15:47:29.723Z,16.38
2023-12-08T15:50:35.125Z,14.82
2023-12-08T15:53:12.369Z,15.82
2023-12-08T15:56:06.576Z,15.63
2023-12-08T15:58:45.006Z,15.05
2023-12-08T16:01:41.057Z,14.75
2023-12-08T16:04:49.812Z,15.02
2023-12-08T16:07:21.408Z,15.57
2023-12-08T16:10:08.320Z,15.32
2023-12-08T16:12:42.197Z,14.40
2023-12-08T16:15:16.899Z,14.90
2023-12-08T16:18:23.235Z,16.92
2023-12-08T16:30:27.654Z,15.23
2023-12-08T16:51:59.890Z,14.65
2023-12-08T16:55:42.298Z,16.13
2023-12-08T16:58:11.028Z,16.30
2023-12-08T17:00:49.180Z,16.80
2023-12-08T17:04:16.250Z,15.75
2023-12-08T18:45:45.342Z,16.77
2023-12-08T18:53:36.049Z,17.25
2023-12-08T20:27:25.324Z,21.25
2023-12-08T20:33:59.899Z,15.13
2023-12-08T20:37:54.635Z,15.73
2023-12-08T20:43:37.005Z,15.70
2023-12-08T20:46:17.155Z,16.00
2023-12-08T20:48:48.401Z,17.52
2023-12-08T20:52:01.193Z,16.83
2023-12-08T20:54:58.210Z,16.83
2023-12-08T20:59:12.220Z,17.80
2023-12-08T21:01:41.847Z,17.00
2023-12-08T21:04:29.454Z,17.98
2023-12-08T21:06:57.652Z,16.88
2023-12-08T21:09:27.931Z,20.23
2023-12-08T21:11:57.674Z,18.95
2023-12-08T21:14:34.146Z,17.10
2023-12-08T21:17:07.509Z,17.67
2023-12-08T21:19:39.581Z,16.75
2023-12-08T21:22:10.937Z,17.00
2023-12-08T21:24:39.240Z,17.60
2023-12-08T21:27:13.571Z,18.65
2023-12-08T21:29:41.548Z,22.73
2023-12-08T21:32:11.891Z,18.25
2023-12-08T21:34:39.064Z,19.10
2023-12-08T21:37:09.176Z,20.75
2023-12-08T21:39:36.484Z,18.88
2023-12-08T21:42:14.086Z,19.88
2023-12-08T21:44:46.519Z,19.55
2023-12-08T21:47:19.630Z,20.30
2023-12-08T21:49:46.992Z,16.42
2023-12-08T21:52:16.424Z,18.27
2023-12-08T21:54:50.022Z,19.52
2023-12-08T21:57:21.064Z,17.20
2023-12-08T21:59:52.099Z,17.30
2023-12-08T22:02:23.098Z,17.90
2023-12-08T22:04:52.041Z,18.00
2023-12-08T22:07:30.550Z,20.00
2023-12-08T22:10:00.417Z,17.42
2023-12-08T22:12:27.674Z,19.23
2023-12-08T22:15:03.366Z,18.30
2023-12-08T22:17:32.265Z,17.98
2023-12-08T22:20:02.141Z,20.85
2023-12-08T22:22:34.345Z,20.38
2023-12-08T22:25:02.048Z,19.85
2023-12-08T22:27:30.530Z,20.45
2023-12-08T22:29:57.792Z,19.65
2023-12-08T22:32:25.223Z,21.50
2023-12-08T22:34:52.793Z,22.02
2023-12-08T22:37:23.369Z,21.13
2023-12-08T22:39:53.764Z,24.52
2023-12-08T22:42:25.129Z,20.38
2023-12-08T22:45:00.398Z,20.95
2023-12-08T22:47:56.404Z,19.65
2023-12-08T22:50:29.364Z,20.02
2023-12-08T22:53:13.372Z,20.50
2023-12-08T22:55:53.081Z,19.88
2023-12-08T22:58:44.485Z,21.38
2023-12-08T23:01:44.201Z,20.30
2023-12-08T23:11:55.583Z,20.00
2023-12-08T23:14:35.505Z,22.00
2023-12-08T23:17:05.703Z,20.90
2023-12-08T23:19:36.218Z,20.33
2023-12-08T23:22:10.388Z,21.80
2023-12-08T23:24:37.542Z,20.90
2023-12-08T23:27:04.741Z,24.27
2023-12-08T23:29:31.843Z,20.98
2023-12-08T23:31:58.988Z,25.77
2023-12-08T23:34:28.950Z,27.67
2023-12-08T23:36:59.566Z,24.83
2023-12-08T23:39:26.802Z,24.02
2023-12-08T23:41:56.480Z,22.70
2023-12-08T23:44:25.338Z,26.25
2023-12-08T23:46:54.912Z,41.53
2023-12-08T23:49:25.582Z,21.45
2023-12-08T23:51:57.164Z,24.10
2023-12-08T23:54:24.549Z,24.45
2023-12-08T23:56:51.630Z,22.98
2023-12-08T23:59:19.232Z,21.67
